createdAt,value
2023-08-28T00:00:48.790Z,23.73
2023-08-28T00:03:16.390Z,23.68
2023-08-28T00:05:43.880Z,23.67
2023-08-28T00:08:11.577Z,23.63
2023-08-28T00:10:41.302Z,23.62
2023-08-28T00:13:08.764Z,23.62
2023-08-28T00:15:35.930Z,23.58
2023-08-28T00:18:03.231Z,23.55
2023-08-28T00:20:30.474Z,23.54
2023-08-28T00:22:57.604Z,23.52
2023-08-28T00:25:24.368Z,23.51
2023-08-28T00:27:51.928Z,23.49
2023-08-28T00:30:19.231Z,23.46
2023-08-28T00:32:46.423Z,23.45
2023-08-28T00:35:13.683Z,23.41
2023-08-28T00:37:40.522Z,23.41
2023-08-28T00:40:08.954Z,23.37
2023-08-28T00:42:36.357Z,23.37
2023-08-28T00:45:04.244Z,23.37
2023-08-28T00:47:31.070Z,23.32
2023-08-28T00:49:58.907Z,23.30
2023-08-28T00:52:26.028Z,23.28
2023-08-28T00:54:52.867Z,23.24
2023-08-28T00:57:20.111Z,23.27
2023-08-28T00:59:47.638Z,23.22
2023-08-28T01:02:14.498Z,23.24
2023-08-28T01:04:41.732Z,23.21
2023-08-28T01:07:27.899Z,23.21
2023-08-28T01:09:58.373Z,23.18
2023-08-28T01:12:54.961Z,23.16
2023-08-28T01:15:25.023Z,23.13
2023-08-28T01:17:57.278Z,23.14
2023-08-28T01:20:26.519Z,23.11
2023-08-28T01:23:06.215Z,23.10
2023-08-28T01:25:33.979Z,23.07
2023-08-28T01:28:01.438Z,23.04
2023-08-28T01:30:28.412Z,23.02
2023-08-28T01:32:55.673Z,23.02
2023-08-28T01:35:26.020Z,23.02
2023-08-28T01:38:20.972Z,22.95
2023-08-28T01:40:51.349Z,22.91
2023-08-28T01:43:24.171Z,22.90
2023-08-28T01:45:54.854Z,22.90
2023-08-28T01:48:22.075Z,22.88
2023-08-28T01:50:49.248Z,22.87
2023-08-28T01:53:16.859Z,22.87
2023-08-28T01:55:46.981Z,22.84
2023-08-28T01:58:14.433Z,22.81
2023-08-28T02:00:41.487Z,22.79
2023-08-28T02:03:11.324Z,22.79
2023-08-28T02:05:38.557Z,22.78
2023-08-28T02:08:06.014Z,22.77
2023-08-28T02:10:33.492Z,22.75
2023-08-28T02:13:00.629Z,22.75
2023-08-28T02:15:28.101Z,22.72
2023-08-28T02:17:55.609Z,22.73
2023-08-28T02:20:23.149Z,22.70
2023-08-28T02:22:50.289Z,22.68
2023-08-28T02:25:21.844Z,22.66
2023-08-28T02:27:49.739Z,22.67
2023-08-28T02:30:17.490Z,22.63
2023-08-28T02:32:45.749Z,22.60
2023-08-28T02:35:13.047Z,22.58
2023-08-28T02:37:40.372Z,22.56
2023-08-28T02:40:08.367Z,22.55
2023-08-28T02:42:35.485Z,22.57
2023-08-28T02:45:02.705Z,22.53
2023-08-28T02:47:29.987Z,22.54
2023-08-28T02:49:57.136Z,22.53
2023-08-28T02:52:24.255Z,22.50
2023-08-28T02:54:51.081Z,22.47
2023-08-28T02:57:18.704Z,22.46
2023-08-28T02:59:45.679Z,22.48
2023-08-28T03:02:12.811Z,22.48
2023-08-28T03:04:40.354Z,22.46
2023-08-28T03:07:07.425Z,22.45
2023-08-28T03:09:34.577Z,22.44
2023-08-28T03:12:02.050Z,22.45
2023-08-28T03:14:28.880Z,22.41
2023-08-28T03:16:55.695Z,22.42
2023-08-28T03:19:23.106Z,22.38
2023-08-28T03:21:50.204Z,22.37
2023-08-28T03:24:19.007Z,22.34
2023-08-28T03:26:47.656Z,22.35
2023-08-28T03:29:14.750Z,22.30
2023-08-28T03:31:41.915Z,22.29
2023-08-28T03:34:09.628Z,22.29
2023-08-28T03:36:36.422Z,22.28
2023-08-28T03:39:03.881Z,22.23
2023-08-28T03:41:33.169Z,22.21
2023-08-28T03:44:00.434Z,22.20
2023-08-28T03:46:27.795Z,22.19
2023-08-28T03:48:55.294Z,22.15
2023-08-28T03:51:22.473Z,22.14
2023-08-28T03:53:49.203Z,22.12
2023-08-28T03:56:16.351Z,22.06
2023-08-28T03:58:43.471Z,22.02
2023-08-28T04:01:10.712Z,22.01
2023-08-28T04:03:37.911Z,21.99
2023-08-28T04:06:05.465Z,21.95
2023-08-28T04:08:32.297Z,21.93
2023-08-28T04:11:00.208Z,21.90
2023-08-28T04:13:27.761Z,21.88
2023-08-28T04:15:54.558Z,21.85
2023-08-28T04:18:21.655Z,21.82
2023-08-28T04:20:49.191Z,21.79
2023-08-28T04:23:16.649Z,21.78
2023-08-28T04:25:43.484Z,21.73
2023-08-28T04:28:10.944Z,21.72
2023-08-28T04:30:38.660Z,21.71
2023-08-28T04:33:07.431Z,21.69
2023-08-28T04:35:34.987Z,21.70
2023-08-28T04:38:02.185Z,21.69
2023-08-28T04:40:29.348Z,21.68
2023-08-28T04:42:57.046Z,21.65
2023-08-28T04:45:24.269Z,21.65
2023-08-28T04:47:51.141Z,21.64
2023-08-28T04:50:18.610Z,21.65
2023-08-28T04:52:45.410Z,21.62
2023-08-28T04:55:12.592Z,21.65
2023-08-28T04:57:39.681Z,21.63
2023-08-28T05:00:07.795Z,21.62
2023-08-28T05:02:36.239Z,21.61
2023-08-28T05:05:04.249Z,21.61
2023-08-28T05:07:31.633Z,21.63
2023-08-28T05:09:58.440Z,21.59
2023-08-28T05:12:25.907Z,21.61
2023-08-28T05:14:53.337Z,21.61
2023-08-28T05:17:20.094Z,21.60
2023-08-28T05:19:47.190Z,21.59
2023-08-28T05:22:14.253Z,21.58
2023-08-28T05:24:41.871Z,21.59
2023-08-28T05:27:09.951Z,21.59
2023-08-28T05:29:36.776Z,21.59
2023-08-28T05:32:04.397Z,21.60
2023-08-28T05:34:32.769Z,21.60
2023-08-28T05:36:59.881Z,21.63
2023-08-28T05:39:26.646Z,21.60
2023-08-28T05:41:54.053Z,21.59
2023-08-28T05:44:21.503Z,21.62
2023-08-28T05:46:49.367Z,21.62
2023-08-28T05:49:17.137Z,21.63
2023-08-28T05:51:44.703Z,21.65
2023-08-28T05:54:12.123Z,21.66
2023-08-28T05:56:38.974Z,21.68
2023-08-28T05:59:06.971Z,21.69
2023-08-28T06:01:34.378Z,21.73
2023-08-28T06:04:01.506Z,21.73
2023-08-28T06:06:28.313Z,21.73
2023-08-28T06:08:55.711Z,21.75
2023-08-28T06:11:23.180Z,21.77
2023-08-28T06:13:50.707Z,21.79
2023-08-28T06:16:18.206Z,21.82
2023-08-28T06:18:45.681Z,21.83
2023-08-28T06:21:13.147Z,21.85
2023-08-28T06:23:40.201Z,21.89
2023-08-28T06:26:07.654Z,21.91
2023-08-28T06:28:34.771Z,21.91
2023-08-28T06:31:05.276Z,21.95
2023-08-28T06:33:32.758Z,21.96
2023-08-28T06:35:59.522Z,21.99
2023-08-28T06:38:26.620Z,22.00
2023-08-28T06:40:54.186Z,22.03
2023-08-28T06:43:21.377Z,22.05
2023-08-28T06:45:48.503Z,22.08
2023-08-28T06:48:15.983Z,22.11
2023-08-28T06:50:43.095Z,22.15
2023-08-28T06:53:10.188Z,22.19
2023-08-28T06:55:37.402Z,22.22
2023-08-28T06:58:04.933Z,22.27
2023-08-28T07:00:32.106Z,22.30
2023-08-28T07:03:00.038Z,22.32
2023-08-28T07:05:27.270Z,22.34
2023-08-28T07:07:54.478Z,22.37
2023-08-28T07:10:21.983Z,22.43
2023-08-28T07:12:48.795Z,22.48
2023-08-28T07:15:18.664Z,22.54
2023-08-28T07:17:46.359Z,22.55
2023-08-28T07:20:13.194Z,22.57
2023-08-28T07:22:40.669Z,22.63
2023-08-28T07:25:08.270Z,22.67
2023-08-28T07:27:35.570Z,22.72
2023-08-28T07:30:05.452Z,22.78
2023-08-28T07:32:34.019Z,22.83
2023-08-28T07:35:01.505Z,22.84
2023-08-28T07:37:32.122Z,22.88
2023-08-28T07:39:59.187Z,22.93
2023-08-28T07:42:26.490Z,22.96
2023-08-28T07:44:53.987Z,22.98
2023-08-28T07:47:21.651Z,23.07
2023-08-28T07:49:48.622Z,23.12
2023-08-28T07:52:16.106Z,23.17
2023-08-28T07:54:42.970Z,23.21
2023-08-28T07:57:10.490Z,23.26
2023-08-28T07:59:37.525Z,23.32
2023-08-28T08:02:05.826Z,23.34
2023-08-28T08:04:33.813Z,23.38
2023-08-28T08:07:01.927Z,23.43
2023-08-28T08:09:29.027Z,23.48
2023-08-28T08:11:56.391Z,23.51
2023-08-28T08:14:24.615Z,23.56
2023-08-28T08:16:51.483Z,23.61
2023-08-28T08:19:18.861Z,23.65
2023-08-28T08:21:45.960Z,23.70
2023-08-28T08:24:12.773Z,23.73
2023-08-28T08:26:39.967Z,23.78
2023-08-28T08:29:07.361Z,23.83
2023-08-28T08:31:34.226Z,23.90
2023-08-28T08:34:01.413Z,23.95
2023-08-28T08:36:28.829Z,23.99
2023-08-28T08:38:55.598Z,24.05
2023-08-28T08:41:22.910Z,24.10
2023-08-28T08:43:50.013Z,24.16
2023-08-28T08:46:18.700Z,24.23
2023-08-28T08:48:47.462Z,24.26
2023-08-28T08:51:16.965Z,24.33
2023-08-28T08:54:06.243Z,24.38
2023-08-28T08:56:35.615Z,24.43
2023-08-28T08:59:04.598Z,24.47
2023-08-28T09:01:32.553Z,24.51
2023-08-28T09:04:03.432Z,24.59
2023-08-28T09:06:33.953Z,24.63
2023-08-28T09:11:38.931Z,24.72
2023-08-28T09:14:07.262Z,24.74
2023-08-28T09:16:36.010Z,24.80
2023-08-28T09:19:03.522Z,24.85
2023-08-28T09:21:39.223Z,24.91
2023-08-28T09:24:12.887Z,24.94
2023-08-28T09:26:40.237Z,24.98
2023-08-28T09:29:08.886Z,25.03
2023-08-28T09:31:38.260Z,25.06
2023-08-28T09:34:08.047Z,25.12
2023-08-28T09:36:40.625Z,25.15
2023-08-28T09:39:10.648Z,25.19
2023-08-28T09:41:47.174Z,25.23
2023-08-28T09:44:16.862Z,25.27
2023-08-28T09:46:45.613Z,25.33
2023-08-28T09:49:14.559Z,25.38
2023-08-28T09:51:58.389Z,25.44
2023-08-28T09:54:25.527Z,25.49
2023-08-28T09:56:54.108Z,25.54
2023-08-28T09:59:20.958Z,25.59
2023-08-28T10:01:48.877Z,25.64
2023-08-28T10:04:21.075Z,25.69
2023-08-28T10:06:53.295Z,25.75
2023-08-28T10:09:23.596Z,25.80
2023-08-28T10:11:52.229Z,25.87
2023-08-28T10:14:22.058Z,25.94
2023-08-28T10:17:00.711Z,26.00
2023-08-28T10:19:38.230Z,26.07
2023-08-28T10:22:08.494Z,26.12
2023-08-28T10:24:42.764Z,26.19
2023-08-28T10:27:12.155Z,26.24
2023-08-28T10:29:40.880Z,26.31
2023-08-28T10:32:10.916Z,26.36
2023-08-28T10:34:41.409Z,26.42
2023-08-28T10:37:26.384Z,26.45
2023-08-28T10:40:02.689Z,26.49
2023-08-28T10:42:31.249Z,26.56
2023-08-28T10:44:59.760Z,26.61
2023-08-28T10:47:29.024Z,26.66
2023-08-28T10:49:59.566Z,26.67
2023-08-28T10:52:28.350Z,26.72
2023-08-28T10:54:58.738Z,26.77
2023-08-28T10:57:28.843Z,26.79
2023-08-28T10:59:56.543Z,26.84
2023-08-28T11:02:24.222Z,26.89
2023-08-28T11:04:51.724Z,26.95
2023-08-28T11:07:32.452Z,27.00
2023-08-28T11:10:32.439Z,27.06
2023-08-28T11:13:07.590Z,27.11
2023-08-28T11:15:39.615Z,27.18
2023-08-28T11:18:28.663Z,27.23
2023-08-28T11:21:01.191Z,27.30
2023-08-28T11:23:40.860Z,27.36
2023-08-28T11:26:27.446Z,27.42
2023-08-28T11:28:54.591Z,27.47
2023-08-28T11:31:21.862Z,27.52
2023-08-28T11:33:51.016Z,27.58
2023-08-28T11:36:26.962Z,27.63
2023-08-28T11:38:56.089Z,27.67
2023-08-28T11:41:24.186Z,27.71
2023-08-28T11:43:51.395Z,27.76
2023-08-28T11:46:18.830Z,27.81
2023-08-28T11:48:46.779Z,27.86
2023-08-28T11:51:14.365Z,27.90
2023-08-28T11:53:43.954Z,27.95
2023-08-28T11:56:13.544Z,27.98
2023-08-28T11:58:43.131Z,28.03
2023-08-28T12:01:12.209Z,28.07
2023-08-28T12:03:42.095Z,28.11
2023-08-28T12:06:10.536Z,28.13
2023-08-28T12:08:43.024Z,28.14
2023-08-28T12:11:12.097Z,28.13
2023-08-28T12:13:39.769Z,28.15
2023-08-28T12:16:21.170Z,28.17
2023-08-28T12:18:52.989Z,28.19
2023-08-28T12:21:33.606Z,28.24
2023-08-28T12:24:00.880Z,28.27
2023-08-28T12:26:27.982Z,28.28
2023-08-28T12:28:55.178Z,28.30
2023-08-28T12:31:33.871Z,28.32
2023-08-28T12:34:11.334Z,28.35
2023-08-28T12:36:40.490Z,28.39
2023-08-28T12:39:10.348Z,28.43
2023-08-28T12:41:48.757Z,28.48
2023-08-28T12:44:15.982Z,28.50
2023-08-28T12:46:43.266Z,28.52
2023-08-28T12:49:12.360Z,28.57
2023-08-28T12:51:41.124Z,28.60
2023-08-28T12:54:08.017Z,28.62
2023-08-28T12:56:36.322Z,28.64
2023-08-28T12:59:03.793Z,28.69
2023-08-28T13:01:31.009Z,28.72
2023-08-28T13:03:58.260Z,28.74
2023-08-28T13:06:25.501Z,28.76
2023-08-28T13:08:53.129Z,28.76
2023-08-28T13:11:20.344Z,28.79
2023-08-28T13:13:48.513Z,28.80
2023-08-28T13:16:16.419Z,28.83
2023-08-28T13:18:43.281Z,28.85
2023-08-28T13:21:12.306Z,28.88
2023-08-28T13:23:39.117Z,28.89
2023-08-28T13:26:05.935Z,28.93
2023-08-28T13:28:33.427Z,28.92
2023-08-28T13:31:00.533Z,28.91
2023-08-28T13:33:27.406Z,28.90
2023-08-28T13:35:54.989Z,28.89
2023-08-28T13:38:23.078Z,28.88
2023-08-28T13:40:50.370Z,28.88
2023-08-28T13:43:17.600Z,28.86
2023-08-28T13:45:44.735Z,28.87
2023-08-28T13:48:11.534Z,28.87
2023-08-28T13:50:41.022Z,28.90
2023-08-28T13:53:09.259Z,28.94
2023-08-28T13:55:37.748Z,28.99
2023-08-28T13:58:05.464Z,29.03
2023-08-28T14:00:32.335Z,29.09
2023-08-28T14:02:59.280Z,29.14
2023-08-28T14:05:26.790Z,29.18
2023-08-28T14:07:54.793Z,29.21
2023-08-28T14:10:21.780Z,29.23
2023-08-28T14:12:49.931Z,29.23
2023-08-28T14:15:17.069Z,29.23
2023-08-28T14:17:44.492Z,29.21
2023-08-28T14:20:12.120Z,29.18
2023-08-28T14:22:39.609Z,29.15
2023-08-28T14:25:07.349Z,29.12
2023-08-28T14:27:46.391Z,29.09
2023-08-28T14:30:19.087Z,29.06
2023-08-28T14:32:47.397Z,29.04
2023-08-28T14:35:16.900Z,29.02
2023-08-28T14:37:44.564Z,29.02
2023-08-28T14:40:11.611Z,29.00
2023-08-28T14:42:38.600Z,28.98
2023-08-28T14:45:06.777Z,28.98
2023-08-28T14:47:33.997Z,28.94
2023-08-28T14:50:00.904Z,28.93
2023-08-28T14:52:28.559Z,28.90
2023-08-28T14:54:56.297Z,28.86
2023-08-28T14:57:23.483Z,28.85
2023-08-28T14:59:50.915Z,28.82
2023-08-28T15:02:19.281Z,28.80
2023-08-28T15:04:46.451Z,28.77
2023-08-28T15:07:14.312Z,28.74
2023-08-28T15:09:43.874Z,28.74
2023-08-28T15:12:12.153Z,28.71
2023-08-28T15:14:41.304Z,28.69
2023-08-28T15:17:08.579Z,28.67
2023-08-28T15:19:35.803Z,28.65
2023-08-28T15:22:03.315Z,28.62
2023-08-28T15:24:32.960Z,28.59
2023-08-28T15:27:00.192Z,28.57
2023-08-28T15:29:27.511Z,28.53
2023-08-28T15:31:54.345Z,28.49
2023-08-28T15:34:21.632Z,28.43
2023-08-28T15:36:48.904Z,28.41
2023-08-28T15:39:16.364Z,28.33
2023-08-28T15:41:43.282Z,28.29
2023-08-28T15:44:11.048Z,28.23
2023-08-28T15:46:38.194Z,28.20
2023-08-28T15:49:05.599Z,28.17
2023-08-28T15:51:32.790Z,28.12
2023-08-28T15:54:00.308Z,28.11
2023-08-28T15:56:27.839Z,28.10
2023-08-28T15:59:08.426Z,28.07
2023-08-28T16:01:41.830Z,28.06
2023-08-28T16:04:08.872Z,28.03
2023-08-28T16:06:36.168Z,28.00
2023-08-28T16:09:04.877Z,27.97
2023-08-28T16:11:35.706Z,27.95
2023-08-28T16:14:03.655Z,27.93
2023-08-28T16:16:31.423Z,27.91
2023-08-28T16:19:03.031Z,27.86
2023-08-28T16:21:32.498Z,27.81
2023-08-28T16:24:00.664Z,27.76
2023-08-28T16:26:28.221Z,27.71
2023-08-28T16:28:55.627Z,27.67
2023-08-28T16:31:23.307Z,27.62
2023-08-28T16:33:50.865Z,27.59
2023-08-28T16:36:18.027Z,27.55
2023-08-28T16:38:45.605Z,27.51
2023-08-28T16:41:13.137Z,27.47
2023-08-28T16:43:39.960Z,27.42
2023-08-28T16:46:08.079Z,27.36
2023-08-28T16:48:35.429Z,27.29
2023-08-28T16:51:02.722Z,27.27
2023-08-28T16:53:30.368Z,27.18
2023-08-28T16:55:58.024Z,27.16
2023-08-28T16:58:25.915Z,27.10
2023-08-28T17:00:53.559Z,27.05
2023-08-28T17:03:21.511Z,27.02
2023-08-28T17:05:55.615Z,26.98
2023-08-28T17:08:23.653Z,26.94
2023-08-28T17:10:50.910Z,26.88
2023-08-28T17:13:18.726Z,26.85
2023-08-28T17:15:46.806Z,26.82
2023-08-28T17:18:14.142Z,26.76
2023-08-28T17:20:42.258Z,26.73
2023-08-28T17:23:10.243Z,26.68
2023-08-28T17:25:37.910Z,26.64
2023-08-28T17:28:06.514Z,26.59
2023-08-28T17:30:33.814Z,26.56
2023-08-28T17:33:00.828Z,26.54
2023-08-28T17:35:31.631Z,26.48
2023-08-28T17:37:59.746Z,26.45
2023-08-28T17:40:27.964Z,26.39
2023-08-28T17:42:55.429Z,26.34
2023-08-28T17:45:22.719Z,26.33
2023-08-28T17:47:49.938Z,26.30
2023-08-28T17:50:17.694Z,26.25
2023-08-28T17:52:44.982Z,26.22
2023-08-28T17:55:12.442Z,26.17
2023-08-28T17:57:40.285Z,26.14
2023-08-28T18:00:11.296Z,26.10
2023-08-28T18:02:57.720Z,26.06
2023-08-28T18:05:26.728Z,26.06
2023-08-28T18:07:54.162Z,26.00
2023-08-28T18:10:21.735Z,25.96
2023-08-28T18:12:49.475Z,25.93
2023-08-28T18:15:19.092Z,25.91
2023-08-28T18:17:48.047Z,25.85
2023-08-28T18:20:16.062Z,25.81
2023-08-28T18:22:43.619Z,25.78
2023-08-28T18:25:11.712Z,25.75
2023-08-28T18:27:52.878Z,25.74
2023-08-28T18:30:27.985Z,25.70
2023-08-28T18:32:55.373Z,25.67
2023-08-28T18:35:23.472Z,25.68
2023-08-28T18:37:51.330Z,25.64
2023-08-28T18:40:18.904Z,25.63
2023-08-28T18:42:46.797Z,25.59
2023-08-28T18:45:14.475Z,25.59
2023-08-28T18:47:42.265Z,25.58
2023-08-28T18:50:10.260Z,25.56
2023-08-28T18:52:37.460Z,25.52
2023-08-28T18:55:06.504Z,25.50
2023-08-28T18:57:38.624Z,25.48
2023-08-28T19:00:08.288Z,25.46
2023-08-28T19:02:36.365Z,25.44
2023-08-28T19:05:04.348Z,25.42
2023-08-28T19:07:32.048Z,25.42
2023-08-28T19:09:59.796Z,25.38
2023-08-28T19:12:29.341Z,25.34
2023-08-28T19:14:57.723Z,25.32
2023-08-28T19:17:27.096Z,25.29
2023-08-28T19:19:54.853Z,25.27
2023-08-28T19:22:24.698Z,25.23
2023-08-28T19:24:52.207Z,25.20
2023-08-28T19:27:20.843Z,25.17
2023-08-28T19:29:48.997Z,25.16
2023-08-28T19:32:16.995Z,25.12
2023-08-28T19:34:45.216Z,25.09
2023-08-28T19:37:12.392Z,25.07
2023-08-28T19:39:40.224Z,25.06
2023-08-28T19:42:08.434Z,25.04
2023-08-28T19:44:35.730Z,25.02
2023-08-28T19:47:05.072Z,25.02
2023-08-28T19:49:34.769Z,24.99
2023-08-28T19:52:04.307Z,24.99
2023-08-28T19:54:32.210Z,24.96
2023-08-28T19:56:59.866Z,24.93
2023-08-28T19:59:27.915Z,24.93
2023-08-28T20:01:55.588Z,24.93
2023-08-28T20:04:26.387Z,24.90
2023-08-28T20:06:54.079Z,24.88
2023-08-28T20:09:21.510Z,24.86
2023-08-28T20:11:49.061Z,24.84
2023-08-28T20:14:17.545Z,24.78
2023-08-28T20:16:45.699Z,24.78
2023-08-28T20:19:13.304Z,24.77
2023-08-28T20:21:41.488Z,24.73
2023-08-28T20:24:10.765Z,24.75
2023-08-28T20:26:38.947Z,24.73
2023-08-28T20:29:07.089Z,24.70
2023-08-28T20:31:34.930Z,24.68
2023-08-28T20:34:03.036Z,24.68
2023-08-28T20:36:31.030Z,24.67
2023-08-28T20:38:58.417Z,24.63
2023-08-28T20:41:26.607Z,24.62
2023-08-28T20:43:54.594Z,24.59
2023-08-28T20:46:22.377Z,24.54
2023-08-28T20:48:50.337Z,24.52
2023-08-28T20:51:18.233Z,24.52
2023-08-28T20:53:45.728Z,24.51
2023-08-28T20:56:13.114Z,24.52
2023-08-28T20:58:40.860Z,24.51
2023-08-28T21:01:08.095Z,24.48
2023-08-28T21:03:37.097Z,24.47
2023-08-28T21:06:04.590Z,24.43
2023-08-28T21:08:31.756Z,24.40
2023-08-28T21:11:01.230Z,24.38
2023-08-28T21:13:29.044Z,24.33
2023-08-28T21:15:59.951Z,24.27
2023-08-28T21:18:27.856Z,24.25
2023-08-28T21:20:55.227Z,24.22
2023-08-28T21:23:22.010Z,24.15
2023-08-28T21:25:49.216Z,24.12
2023-08-28T21:28:16.935Z,24.05
2023-08-28T21:30:46.830Z,24.03
2023-08-28T21:33:14.002Z,23.99
2023-08-28T21:35:41.130Z,23.92
2023-08-28T21:38:08.682Z,23.86
2023-08-28T21:40:35.757Z,23.83
2023-08-28T21:43:02.851Z,23.81
2023-08-28T21:45:29.931Z,23.77
2023-08-28T21:47:56.755Z,23.70
2023-08-28T21:50:23.846Z,23.68
2023-08-28T21:52:50.933Z,23.63
2023-08-28T21:55:18.036Z,23.56
2023-08-28T21:57:45.133Z,23.51
2023-08-28T22:00:13.205Z,23.46
2023-08-28T22:02:40.414Z,23.42
2023-08-28T22:05:08.512Z,23.39
2023-08-28T22:07:36.037Z,23.33
2023-08-28T22:10:03.211Z,23.28
2023-08-28T22:12:30.157Z,23.25
2023-08-28T22:14:59.962Z,23.21
2023-08-28T22:17:28.845Z,23.19
2023-08-28T22:19:55.612Z,23.15
2023-08-28T22:22:22.890Z,23.14
2023-08-28T22:24:49.946Z,23.13
2023-08-28T22:27:16.715Z,23.08
2023-08-28T22:29:49.712Z,23.06
2023-08-28T22:32:17.145Z,23.02
2023-08-28T22:34:44.255Z,22.98
2023-08-28T22:37:11.052Z,22.93
2023-08-28T22:39:38.117Z,22.90
2023-08-28T22:42:05.442Z,22.85
2023-08-28T22:44:32.896Z,22.82
2023-08-28T22:46:59.952Z,22.77
2023-08-28T22:49:27.156Z,22.74
2023-08-28T22:51:54.265Z,22.70
2023-08-28T22:54:21.405Z,22.63
2023-08-28T22:56:48.149Z,22.56
2023-08-28T22:59:15.585Z,22.53
2023-08-28T23:01:42.568Z,22.51
2023-08-28T23:04:09.342Z,22.48
2023-08-28T23:06:36.796Z,22.44
2023-08-28T23:09:04.614Z,22.38
2023-08-28T23:11:31.413Z,22.32
2023-08-28T23:13:58.502Z,22.32
2023-08-28T23:16:26.131Z,22.23
2023-08-28T23:18:53.276Z,22.23
2023-08-28T23:21:20.057Z,22.20
2023-08-28T23:23:47.503Z,22.15
2023-08-28T23:26:14.610Z,22.12
2023-08-28T23:28:42.004Z,22.09
2023-08-28T23:31:08.783Z,22.05
2023-08-28T23:33:35.591Z,22.03
2023-08-28T23:36:03.062Z,21.98
2023-08-28T23:38:30.470Z,21.93
2023-08-28T23:40:58.309Z,21.92
2023-08-28T23:43:25.557Z,21.91
2023-08-28T23:45:52.885Z,21.86
2023-08-28T23:48:20.172Z,21.84
2023-08-28T23:50:47.317Z,21.79
2023-08-28T23:53:15.033Z,21.78
2023-08-28T23:55:41.827Z,21.73
2023-08-28T23:58:08.686Z,21.71
